createdAt,value
2018-11-05T00:01:44.089Z,88.04
2018-11-05T00:04:12.557Z,88.20
2018-11-05T00:06:41.011Z,88.44
2018-11-05T00:09:10.756Z,88.40
2018-11-05T00:11:39.233Z,88.52
2018-11-05T00:14:08.333Z,88.44
2018-11-05T00:16:39.215Z,87.66
2018-11-05T00:19:07.822Z,87.96
2018-11-05T00:21:36.316Z,88.02
2018-11-05T00:24:05.043Z,87.93
2018-11-05T00:26:36.774Z,88.18
2018-11-05T00:29:05.241Z,88.02
2018-11-05T00:31:36.869Z,88.27
2018-11-05T00:36:47.427Z,88.68
2018-11-05T00:39:19.200Z,89.11
2018-11-05T00:44:50.051Z,89.07
2018-11-05T00:47:18.494Z,89.11
2018-11-05T00:49:46.970Z,88.99
2018-11-05T00:52:15.439Z,89.11
2018-11-05T00:54:43.934Z,88.86
2018-11-05T00:57:12.390Z,89.13
2018-11-05T00:59:40.879Z,89.14
2018-11-05T01:02:09.715Z,89.46
2018-11-05T01:04:38.179Z,89.71
2018-11-05T01:07:25.265Z,89.33
2018-11-05T01:09:53.744Z,88.79
2018-11-05T01:12:22.291Z,89.03
2018-11-05T01:14:50.745Z,88.73
2018-11-05T01:17:19.291Z,88.40
2018-11-05T01:19:47.792Z,87.75
2018-11-05T01:22:16.314Z,87.82
2018-11-05T01:24:44.812Z,87.92
2018-11-05T01:27:13.311Z,87.83
2018-11-05T01:29:41.781Z,88.20
2018-11-05T01:32:10.265Z,88.41
2018-11-05T01:34:38.719Z,88.13
2018-11-05T01:37:09.613Z,87.98
2018-11-05T01:39:38.253Z,88.19
2018-11-05T01:42:06.765Z,88.36
2018-11-05T01:44:35.230Z,88.34
2018-11-05T01:47:03.742Z,87.82
2018-11-05T01:49:32.218Z,88.46
2018-11-05T01:52:03.293Z,87.98
2018-11-05T01:54:34.947Z,88.11
2018-11-05T01:57:07.321Z,88.37
2018-11-05T01:59:41.383Z,87.97
2018-11-05T02:02:09.890Z,87.94
2018-11-05T02:04:38.453Z,88.18
2018-11-05T02:07:16.397Z,88.25
2018-11-05T02:09:48.564Z,88.09
2018-11-05T02:12:33.328Z,88.43
2018-11-05T02:15:02.273Z,88.08
2018-11-05T02:17:42.062Z,87.77
2018-11-05T02:20:11.277Z,87.84
2018-11-05T02:22:40.024Z,88.15
2018-11-05T02:25:09.558Z,87.73
2018-11-05T02:27:48.177Z,88.12
2018-11-05T02:30:37.236Z,88.25
2018-11-05T02:33:06.021Z,88.00
2018-11-05T02:35:34.670Z,88.15
2018-11-05T02:38:12.056Z,88.44
2018-11-05T02:40:49.085Z,88.15
2018-11-05T02:43:17.758Z,87.89
2018-11-05T02:45:46.258Z,87.70
2018-11-05T02:48:14.773Z,87.69
2018-11-05T02:50:43.250Z,87.41
2018-11-05T02:53:11.755Z,87.44
2018-11-05T02:55:40.266Z,87.36
2018-11-05T02:58:08.926Z,87.19
2018-11-05T03:00:37.390Z,87.84
2018-11-05T03:03:05.922Z,87.67
2018-11-05T03:05:34.437Z,87.71
2018-11-05T03:08:02.984Z,88.12
2018-11-05T03:10:31.474Z,88.02
2018-11-05T03:12:59.967Z,88.03
2018-11-05T03:15:28.492Z,87.78
2018-11-05T03:17:56.983Z,87.66
2018-11-05T03:20:25.477Z,87.97
2018-11-05T03:22:53.975Z,88.04
2018-11-05T03:25:22.494Z,88.00
2018-11-05T03:27:51.019Z,87.92
2018-11-05T03:30:19.838Z,87.54
2018-11-05T03:32:48.423Z,87.82
2018-11-05T03:35:16.923Z,87.96
2018-11-05T03:37:46.437Z,87.79
2018-11-05T03:40:15.322Z,87.63
2018-11-05T03:42:44.208Z,87.79
2018-11-05T03:45:14.010Z,87.58
2018-11-05T03:47:42.655Z,87.90
2018-11-05T03:50:13.255Z,87.80
2018-11-05T03:52:42.151Z,87.81
2018-11-05T03:55:10.646Z,88.36
2018-11-05T03:57:39.166Z,88.42
2018-11-05T04:00:08.931Z,88.47
2018-11-05T04:02:37.515Z,88.40
2018-11-05T04:05:06.425Z,88.57
2018-11-05T04:07:34.962Z,88.19
2018-11-05T04:10:03.488Z,88.59
2018-11-05T04:12:32.057Z,88.55
2018-11-05T04:15:00.583Z,88.81
2018-11-05T04:17:29.074Z,88.78
2018-11-05T04:19:57.984Z,88.90
2018-11-05T04:22:26.478Z,88.70
2018-11-05T04:24:54.970Z,88.35
2018-11-05T04:27:23.482Z,88.80
2018-11-05T04:29:51.993Z,88.36
2018-11-05T04:32:20.497Z,88.64
2018-11-05T04:34:49.036Z,88.72
2018-11-05T04:37:17.514Z,88.75
2018-11-05T04:39:46.039Z,88.54
2018-11-05T04:42:16.665Z,88.33
2018-11-05T04:44:45.352Z,87.85
2018-11-05T04:47:13.859Z,87.72
2018-11-05T04:49:42.348Z,87.56
2018-11-05T04:52:10.841Z,87.68
2018-11-05T04:54:39.371Z,87.97
2018-11-05T04:57:07.854Z,87.65
2018-11-05T04:59:36.391Z,87.79
2018-11-05T05:02:05.164Z,87.54
2018-11-05T05:04:33.681Z,87.33
2018-11-05T05:07:02.211Z,87.55
2018-11-05T05:09:30.726Z,87.32
2018-11-05T05:11:59.231Z,87.87
2018-11-05T05:14:27.751Z,88.26
2018-11-05T05:16:56.252Z,87.93
2018-11-05T05:19:24.809Z,88.01
2018-11-05T05:21:53.323Z,88.12
2018-11-05T05:24:21.837Z,87.71
2018-11-05T05:26:50.322Z,87.67
2018-11-05T05:29:18.847Z,87.72
2018-11-05T05:31:47.340Z,87.91
2018-11-05T05:34:15.872Z,87.84
2018-11-05T05:36:44.387Z,87.26
2018-11-05T05:39:12.913Z,87.58
2018-11-05T05:41:41.425Z,87.54
2018-11-05T05:44:09.938Z,86.87
2018-11-05T05:46:38.410Z,86.90
2018-11-05T05:49:06.933Z,86.38
2018-11-05T05:51:35.460Z,86.97
2018-11-05T05:54:03.970Z,86.95
2018-11-05T05:56:32.450Z,87.12
2018-11-05T05:59:01.852Z,86.92
2018-11-05T06:01:30.392Z,87.73
2018-11-05T06:03:58.935Z,87.23
2018-11-05T06:06:27.499Z,87.04
2018-11-05T06:08:55.973Z,87.12
2018-11-05T06:11:24.501Z,87.12
2018-11-05T06:13:53.041Z,86.84
2018-11-05T06:16:22.693Z,86.35
2018-11-05T06:18:51.203Z,86.13
2018-11-05T06:21:20.453Z,86.24
2018-11-05T06:23:55.339Z,86.53
2018-11-05T06:26:23.878Z,86.67
2018-11-05T06:28:52.397Z,86.06
2018-11-05T06:31:20.918Z,85.77
2018-11-05T06:33:49.438Z,86.05
2018-11-05T06:36:17.945Z,85.95
2018-11-05T06:38:46.467Z,85.96
2018-11-05T06:41:15.122Z,86.32
2018-11-05T06:43:43.988Z,86.17
2018-11-05T06:46:12.527Z,86.43
2018-11-05T06:48:41.044Z,85.81
2018-11-05T06:51:09.517Z,85.49
2018-11-05T06:53:37.978Z,85.84
2018-11-05T06:56:06.535Z,85.82
2018-11-05T06:58:35.186Z,85.48
2018-11-05T07:01:03.682Z,85.13
2018-11-05T07:03:32.180Z,84.63
2018-11-05T07:06:00.813Z,84.26
2018-11-05T07:08:29.724Z,84.42
2018-11-05T07:10:58.305Z,84.33
2018-11-05T07:13:27.096Z,84.47
2018-11-05T07:15:55.866Z,85.07
2018-11-05T07:18:25.619Z,84.98
2018-11-05T07:20:54.127Z,85.30
2018-11-05T07:23:22.989Z,84.66
2018-11-05T07:25:54.451Z,84.63
2018-11-05T07:28:23.111Z,84.01
2018-11-05T07:30:51.611Z,83.51
2018-11-05T07:33:20.128Z,83.85
2018-11-05T07:35:48.628Z,83.81
2018-11-05T07:38:17.118Z,83.02
2018-11-05T07:40:46.434Z,82.61
2018-11-05T07:43:14.906Z,82.71
2018-11-05T07:45:46.401Z,82.23
2018-11-05T07:48:15.030Z,82.06
2018-11-05T07:50:43.625Z,82.31
2018-11-05T07:53:12.068Z,82.08
2018-11-05T07:55:42.862Z,82.18
2018-11-05T07:58:13.902Z,82.10
2018-11-05T08:00:54.904Z,81.76
2018-11-05T08:03:23.771Z,81.10
2018-11-05T08:05:55.343Z,81.26
2018-11-05T08:08:26.084Z,79.87
2018-11-05T08:10:59.164Z,79.36
2018-11-05T08:13:27.790Z,79.97
2018-11-05T08:15:56.297Z,79.85
2018-11-05T08:18:24.806Z,79.79
2018-11-05T08:20:53.298Z,79.44
2018-11-05T08:23:24.725Z,79.19
2018-11-05T08:25:53.366Z,78.72
2018-11-05T08:28:21.902Z,79.62
2018-11-05T08:30:50.435Z,78.79
2018-11-05T08:33:18.954Z,78.57
2018-11-05T08:35:47.433Z,78.58
2018-11-05T08:38:15.939Z,78.38
2018-11-05T08:40:44.447Z,77.78
2018-11-05T08:43:13.492Z,77.84
2018-11-05T08:45:42.120Z,77.32
2018-11-05T08:48:11.100Z,77.31
2018-11-05T08:50:44.058Z,77.02
2018-11-05T08:53:16.528Z,77.04
2018-11-05T08:55:45.212Z,76.55
2018-11-05T08:58:13.897Z,76.83
2018-11-05T09:00:52.491Z,76.37
2018-11-05T09:03:21.041Z,76.46
2018-11-05T09:05:49.577Z,76.60
2018-11-05T09:08:18.135Z,76.10
2018-11-05T09:10:47.100Z,75.87
2018-11-05T09:13:15.357Z,76.81
2018-11-05T09:15:43.873Z,76.87
2018-11-05T09:18:12.459Z,77.00
2018-11-05T09:20:41.132Z,76.95
2018-11-05T09:23:09.653Z,76.75
2018-11-05T09:25:38.190Z,76.58
2018-11-05T09:28:07.178Z,76.65
2018-11-05T09:30:35.668Z,76.21
2018-11-05T09:33:04.222Z,75.96
2018-11-05T09:35:33.090Z,75.84
2018-11-05T09:38:01.674Z,75.15
2018-11-05T09:40:30.162Z,74.74
2018-11-05T09:42:58.883Z,74.52
2018-11-05T09:45:28.648Z,74.62
2018-11-05T09:47:58.200Z,74.76
2018-11-05T09:50:26.732Z,74.21
2018-11-05T09:52:55.199Z,73.98
2018-11-05T09:55:23.792Z,73.52
2018-11-05T09:57:52.376Z,73.45
2018-11-05T10:00:22.923Z,73.40
2018-11-05T10:02:56.931Z,72.72
2018-11-05T10:05:25.357Z,72.88
2018-11-05T10:07:53.914Z,72.93
2018-11-05T10:10:22.473Z,72.71
2018-11-05T10:12:50.964Z,72.67
2018-11-05T10:15:21.671Z,72.22
2018-11-05T10:17:50.182Z,72.59
2018-11-05T10:20:21.023Z,72.25
2018-11-05T10:22:49.541Z,71.94
2018-11-05T10:25:18.281Z,72.27
2018-11-05T10:27:47.326Z,72.52
2018-11-05T10:30:18.021Z,72.29
2018-11-05T10:32:46.563Z,72.90
2018-11-05T10:35:16.063Z,72.97
2018-11-05T10:37:45.418Z,72.92
2018-11-05T10:40:16.880Z,73.04
2018-11-05T10:42:46.210Z,73.13
2018-11-05T10:45:15.907Z,72.40
2018-11-05T10:47:44.394Z,72.14
2018-11-05T10:50:14.058Z,71.86
2018-11-05T10:52:43.303Z,71.48
2018-11-05T10:55:11.837Z,71.50
2018-11-05T10:57:41.051Z,71.13
2018-11-05T11:00:18.779Z,70.80
2018-11-05T11:02:52.647Z,70.66
2018-11-05T11:05:21.597Z,70.71
2018-11-05T11:07:54.551Z,70.92
2018-11-05T11:10:30.286Z,71.22
2018-11-05T11:13:01.319Z,70.76
2018-11-05T11:15:31.386Z,71.16
2018-11-05T11:17:59.886Z,71.06
2018-11-05T11:20:28.497Z,71.00
2018-11-05T11:22:56.987Z,70.94
2018-11-05T11:25:25.525Z,70.89
2018-11-05T11:27:54.357Z,70.98
2018-11-05T11:30:22.783Z,70.99
2018-11-05T11:32:52.083Z,70.77
2018-11-05T11:35:20.697Z,70.90
2018-11-05T11:37:49.181Z,70.16
2018-11-05T11:40:19.051Z,69.70
2018-11-05T11:42:48.240Z,69.06
2018-11-05T11:45:17.863Z,68.55
2018-11-05T11:47:47.272Z,67.71
2018-11-05T11:50:16.645Z,67.20
2018-11-05T11:52:45.157Z,66.67
2018-11-05T11:55:15.263Z,66.52
2018-11-05T11:57:44.106Z,66.57
2018-11-05T12:00:17.068Z,66.14
2018-11-05T12:02:46.424Z,65.90
2018-11-05T12:05:15.676Z,65.95
2018-11-05T12:07:44.343Z,65.51
2018-11-05T12:10:16.397Z,65.20
2018-11-05T12:12:45.145Z,64.42
2018-11-05T12:15:14.738Z,64.11
2018-11-05T12:17:43.853Z,64.69
2018-11-05T12:20:14.349Z,64.07
2018-11-05T12:22:43.400Z,63.99
2018-11-05T12:25:11.977Z,63.58
2018-11-05T12:27:40.484Z,63.50
2018-11-05T12:30:13.275Z,63.97
2018-11-05T12:32:41.806Z,63.47
2018-11-05T12:35:11.879Z,61.94
2018-11-05T12:37:41.124Z,59.89
2018-11-05T12:40:11.747Z,57.97
2018-11-05T12:42:40.251Z,55.52
2018-11-05T12:45:09.478Z,53.07
2018-11-05T12:47:38.157Z,51.72
2018-11-05T12:50:14.686Z,49.97
2018-11-05T12:52:44.124Z,50.28
2018-11-05T12:55:13.553Z,50.08
2018-11-05T12:57:42.218Z,48.68
2018-11-05T13:00:12.961Z,48.59
2018-11-05T13:02:41.451Z,47.93
2018-11-05T13:05:11.107Z,46.62
2018-11-05T13:07:39.680Z,45.09
2018-11-05T13:10:10.327Z,43.53
2018-11-05T13:12:39.113Z,44.26
2018-11-05T13:15:08.187Z,43.85
2018-11-05T13:17:37.307Z,43.50
2018-11-05T13:20:06.736Z,42.73
2018-11-05T13:22:35.246Z,42.79
2018-11-05T13:25:03.730Z,44.51
2018-11-05T13:27:32.244Z,45.04
2018-11-05T13:30:00.963Z,46.01
2018-11-05T13:32:29.461Z,48.69
2018-11-05T13:34:57.984Z,50.14
2018-11-05T13:37:26.856Z,48.74
2018-11-05T13:39:55.046Z,46.34
2018-11-05T13:42:23.598Z,45.76
2018-11-05T13:44:52.182Z,43.64
2018-11-05T13:47:21.342Z,44.33
2018-11-05T13:49:49.384Z,43.41
2018-11-05T13:52:17.881Z,43.80
2018-11-05T13:54:46.467Z,44.34
2018-11-05T13:59:42.348Z,43.61
2018-11-05T14:02:10.923Z,43.53
2018-11-05T14:04:39.505Z,43.43
2018-11-05T14:07:09.165Z,42.04
2018-11-05T14:09:39.219Z,42.00
2018-11-05T14:12:08.468Z,40.88
2018-11-05T14:14:37.081Z,41.11
2018-11-05T14:17:06.759Z,40.32
2018-11-05T14:19:36.399Z,39.49
2018-11-05T14:22:05.809Z,38.95
2018-11-05T14:24:35.192Z,38.14
2018-11-05T14:27:04.586Z,38.29
2018-11-05T14:29:34.807Z,39.14
2018-11-05T14:32:03.897Z,39.38
2018-11-05T14:34:34.048Z,39.54
2018-11-05T14:37:03.683Z,40.12
2018-11-05T14:39:33.023Z,39.95
2018-11-05T14:42:27.895Z,41.04
2018-11-05T14:44:57.521Z,42.12
2018-11-05T14:47:27.030Z,43.42
2018-11-05T14:50:02.518Z,45.28
2018-11-05T14:52:34.071Z,46.50
2018-11-05T14:55:15.569Z,48.64
2018-11-05T14:57:47.515Z,48.86
2018-11-05T15:00:19.676Z,50.44
2018-11-05T15:02:48.767Z,51.33
2018-11-05T15:05:17.609Z,52.67
2018-11-05T15:07:46.862Z,54.31
2018-11-05T15:10:16.991Z,55.35
2018-11-05T15:12:45.616Z,57.18
2018-11-05T15:15:14.741Z,57.12
2018-11-05T15:17:43.880Z,57.49
2018-11-05T15:20:14.854Z,57.47
2018-11-05T15:22:43.503Z,57.94
2018-11-05T15:25:12.538Z,58.07
2018-11-05T15:27:41.318Z,57.75
2018-11-05T15:30:12.459Z,57.92
2018-11-05T15:32:41.676Z,58.19
2018-11-05T15:35:10.269Z,58.58
2018-11-05T15:37:39.528Z,58.95
2018-11-05T15:40:09.144Z,59.78
2018-11-05T15:42:37.843Z,60.25
2018-11-05T15:45:08.006Z,60.75
2018-11-05T15:47:36.535Z,61.83
2018-11-05T15:50:07.132Z,62.60
2018-11-05T15:52:35.764Z,62.67
2018-11-05T15:55:04.174Z,63.29
2018-11-05T15:57:32.663Z,63.71
2018-11-05T16:00:01.249Z,64.20
2018-11-05T16:02:29.760Z,64.73
2018-11-05T16:05:02.194Z,65.07
2018-11-05T16:07:34.070Z,65.51
2018-11-05T16:10:06.040Z,65.92
2018-11-05T16:12:40.658Z,66.51
2018-11-05T16:15:14.240Z,66.92
2018-11-05T16:17:49.017Z,67.65
2018-11-05T16:20:22.582Z,67.77
2018-11-05T16:23:02.310Z,68.59
2018-11-05T16:26:02.555Z,68.68
2018-11-05T16:28:36.283Z,69.17
2018-11-05T16:31:08.922Z,69.75
2018-11-05T16:33:37.814Z,69.90
2018-11-05T16:36:16.638Z,70.43
2018-11-05T16:38:45.392Z,70.92
2018-11-05T16:41:17.501Z,71.71
2018-11-05T16:43:51.314Z,72.07
2018-11-05T16:46:26.170Z,73.16
2018-11-05T16:48:54.978Z,73.42
2018-11-05T16:51:23.588Z,73.54
2018-11-05T16:53:52.246Z,73.94
2018-11-05T16:56:20.619Z,74.28
2018-11-05T16:58:49.107Z,74.25
2018-11-05T17:01:17.716Z,75.06
2018-11-05T17:03:46.114Z,75.03
2018-11-05T17:06:14.614Z,75.57
2018-11-05T17:08:43.201Z,75.83
2018-11-05T17:11:11.749Z,76.15
2018-11-05T17:13:40.565Z,76.59
2018-11-05T17:16:08.937Z,76.90
2018-11-05T17:18:37.482Z,77.43
2018-11-05T17:21:06.315Z,77.68
2018-11-05T17:23:34.837Z,77.87
2018-11-05T17:26:03.370Z,78.27
2018-11-05T17:28:31.911Z,78.27
2018-11-05T17:31:00.453Z,78.33
2018-11-05T17:33:29.054Z,78.57
2018-11-05T17:35:57.480Z,78.65
2018-11-05T17:38:26.003Z,78.47
2018-11-05T17:40:54.514Z,78.51
2018-11-05T17:43:23.068Z,78.68
2018-11-05T17:45:51.566Z,79.16
2018-11-05T17:48:20.051Z,79.42
2018-11-05T17:50:48.683Z,79.51
2018-11-05T17:53:17.133Z,79.47
2018-11-05T17:55:45.623Z,79.75
2018-11-05T17:58:14.090Z,79.73
2018-11-05T18:00:42.639Z,79.90
2018-11-05T18:03:11.131Z,80.02
2018-11-05T18:05:39.638Z,80.39
2018-11-05T18:08:08.215Z,80.75
2018-11-05T18:10:36.721Z,80.93
2018-11-05T18:13:05.749Z,81.14
2018-11-05T18:15:34.477Z,81.48
2018-11-05T18:18:02.865Z,81.56
2018-11-05T18:20:31.423Z,81.39
2018-11-05T18:22:59.997Z,81.22
2018-11-05T18:25:29.667Z,81.15
2018-11-05T18:27:58.208Z,81.58
2018-11-05T18:30:26.731Z,81.88
2018-11-05T18:32:55.274Z,81.89
2018-11-05T18:35:23.841Z,82.18
2018-11-05T18:37:52.867Z,82.19
2018-11-05T18:40:21.447Z,81.97
2018-11-05T18:42:49.958Z,81.80
2018-11-05T18:45:18.560Z,81.52
2018-11-05T18:47:48.811Z,82.24
2018-11-05T18:50:17.374Z,81.43
2018-11-05T18:52:46.056Z,80.86
2018-11-05T18:55:16.050Z,81.16
2018-11-05T18:57:44.633Z,81.56
2018-11-05T19:00:19.403Z,82.40
2018-11-05T19:02:48.425Z,82.21
2018-11-05T19:05:17.532Z,82.09
2018-11-05T19:07:46.025Z,82.26
2018-11-05T19:10:14.775Z,82.23
2018-11-05T19:12:43.318Z,83.14
2018-11-05T19:15:13.296Z,83.71
2018-11-05T19:17:42.383Z,83.50
2018-11-05T19:20:11.083Z,83.17
2018-11-05T19:22:41.964Z,82.95
2018-11-05T19:25:11.877Z,82.61
2018-11-05T19:27:40.954Z,81.97
2018-11-05T19:30:12.882Z,81.64
2018-11-05T19:32:41.868Z,81.32
2018-11-05T19:35:11.334Z,80.83
2018-11-05T19:37:40.273Z,80.81
2018-11-05T19:40:14.381Z,81.08
2018-11-05T19:42:45.110Z,81.35
2018-11-05T19:45:15.469Z,82.00
2018-11-05T19:47:44.022Z,81.86
2018-11-05T19:50:14.832Z,82.04
2018-11-05T19:52:44.262Z,82.67
2018-11-05T19:55:13.885Z,83.54
2018-11-05T19:57:43.289Z,83.39
2018-11-05T20:00:30.899Z,83.84
2018-11-05T20:03:00.398Z,83.58
2018-11-05T20:05:28.979Z,83.12
2018-11-05T20:07:58.369Z,82.84
2018-11-05T20:10:27.771Z,83.05
2018-11-05T20:12:56.267Z,83.81
2018-11-05T20:15:24.893Z,84.63
2018-11-05T20:17:54.411Z,85.46
2018-11-05T20:20:23.903Z,85.14
2018-11-05T20:22:52.575Z,84.05
2018-11-05T20:25:21.126Z,83.65
2018-11-05T20:27:49.639Z,83.97
2018-11-05T20:30:27.657Z,84.16
2018-11-05T20:32:57.799Z,84.29
2018-11-05T20:35:26.038Z,84.10
2018-11-05T20:37:54.530Z,84.54
2018-11-05T20:40:23.711Z,85.60
2018-11-05T20:42:52.840Z,85.22
2018-11-05T20:45:22.246Z,85.05
2018-11-05T20:47:50.774Z,84.19
2018-11-05T20:50:19.497Z,84.32
2018-11-05T20:52:48.052Z,84.31
2018-11-05T20:55:18.035Z,84.14
2018-11-05T20:57:47.302Z,85.00
2018-11-05T21:00:17.282Z,85.10
2018-11-05T21:02:45.783Z,84.61
2018-11-05T21:05:14.956Z,84.41
2018-11-05T21:07:43.966Z,83.63
2018-11-05T21:10:14.118Z,83.19
2018-11-05T21:12:43.291Z,83.12
2018-11-05T21:15:18.333Z,83.07
2018-11-05T21:17:47.853Z,83.53
2018-11-05T21:20:18.104Z,83.62
2018-11-05T21:22:47.261Z,83.90
2018-11-05T21:25:15.620Z,83.94
2018-11-05T21:27:44.519Z,83.98
2018-11-05T21:30:15.258Z,84.46
2018-11-05T21:32:45.488Z,84.48
2018-11-05T21:35:15.632Z,85.31
2018-11-05T21:37:44.273Z,85.30
2018-11-05T21:40:14.094Z,84.66
2018-11-05T21:42:42.605Z,84.79
2018-11-05T21:45:12.316Z,85.68
2018-11-05T21:47:41.207Z,85.54
2018-11-05T21:50:11.435Z,85.63
2018-11-05T21:52:40.816Z,84.97
2018-11-05T21:55:09.690Z,85.11
2018-11-05T21:57:39.874Z,84.89
2018-11-05T22:00:11.547Z,85.39
2018-11-05T22:02:45.231Z,85.42
2018-11-05T22:05:14.215Z,85.43
2018-11-05T22:07:43.466Z,85.30
2018-11-05T22:10:12.609Z,85.73
2018-11-05T22:12:41.437Z,85.50
2018-11-05T22:15:09.929Z,85.45
2018-11-05T22:17:38.451Z,85.29
2018-11-05T22:20:08.192Z,84.96
2018-11-05T22:22:37.087Z,85.49
2018-11-05T22:25:05.574Z,85.02
2018-11-05T22:27:34.216Z,85.03
2018-11-05T22:30:02.649Z,84.87
2018-11-05T22:32:31.330Z,84.77
2018-11-05T22:35:00.768Z,84.43
2018-11-05T22:37:29.667Z,84.33
2018-11-05T22:39:59.127Z,84.66
2018-11-05T22:42:27.997Z,84.78
2018-11-05T22:44:56.538Z,85.08
2018-11-05T22:47:25.360Z,84.67
2018-11-05T22:49:53.889Z,84.37
2018-11-05T22:52:22.464Z,84.40
2018-11-05T22:54:56.482Z,84.46
2018-11-05T22:57:25.315Z,84.55
2018-11-05T22:59:54.452Z,84.67
2018-11-05T23:02:23.045Z,84.82
2018-11-05T23:04:51.625Z,84.71
2018-11-05T23:07:20.235Z,84.85
2018-11-05T23:09:49.155Z,85.01
2018-11-05T23:12:19.212Z,85.28
2018-11-05T23:14:47.796Z,85.25
2018-11-05T23:17:16.766Z,85.12
2018-11-05T23:19:45.269Z,85.07
2018-11-05T23:22:13.793Z,85.07
2018-11-05T23:24:42.283Z,84.25
2018-11-05T23:27:10.803Z,84.69
2018-11-05T23:29:44.073Z,84.93
2018-11-05T23:32:12.635Z,84.78
2018-11-05T23:34:41.117Z,85.14
2018-11-05T23:37:11.454Z,85.05
2018-11-05T23:39:43.029Z,85.06
2018-11-05T23:42:11.715Z,84.91
2018-11-05T23:44:40.179Z,85.65
2018-11-05T23:47:08.700Z,85.29
2018-11-05T23:49:37.554Z,85.01
2018-11-05T23:52:06.111Z,85.29
2018-11-05T23:54:34.578Z,85.26
2018-11-05T23:57:03.069Z,85.41
2018-11-05T23:59:31.600Z,85.36
